Gough Island, South Africa
Current Conditions -  °F | °C
As of 2:00 AM on Thursday 23 Oct 2014 (Local Time) from FACT Reporting Station
Overcast Overcast  
Wind Chill: 16°   Ceiling: 800
Heat Index: 16°   Visibility: 5mi
Dew Point: 14°   Wind: 3mph
Humidity: 88%   Direction: 70°ENE
Pressure: 30"   Gusts: NA
Location:  40.35°S, 9.88°W
Report Text: FACT 230000Z 07003KT 8000 OVC008 16/14 Q1016 NOSIG
Loading
Personal Weather Stations






























Interactive Weather Map
Tropical Storm Tracking
New forecast layout! Learn more

10-Day Weather Forecast

Advertisements
Track Severe Weather on mobile